ADDS METAR Data INFO
IDs: Format: Raw Decoded Include TAF

Data at: 0105 UTC 24 Jun 2018

PASX 240056Z AUTO 26009KT 10SM OVC060 12/03 A3009 RMK AO2 SLP198 T01220033
PASX 232356Z AUTO 28009KT 10SM OVC060 13/04 A3009 RMK AO2 SLP201 T01280044 10128 20111 58010
PASX 232256Z AUTO 26006KT 10SM OVC055 13/04 A3010 RMK AO2 SLP204 T01280039
PASX 232156Z AUTO 25005KT 10SM OVC060 12/03 A3011 RMK AO2 SLP208 T01220033
PASX 232056Z AUTO 25005KT 10SM FEW047 OVC060 12/03 A3012 RMK AO2 SLP211 T01170028 58007
PASX 231956Z AUTO 28006KT 10SM SCT048 OVC060 12/03 A3013 RMK AO2 SLP214 T01170028
PASX 231914Z AUTO 28007KT 10SM BKN030 OVC060 12/04 A3014 RMK AO2
PASX 231856Z AUTO VRB05KT 10SM OVC028 12/04 A3014 RMK AO2 SLP216 T01170044
PASX 231839Z AUTO 30006KT 10SM BKN026 OVC065 11/04 A3014 RMK AO2
PASX 231756Z AUTO 24005KT 10SM OVC065 11/06 A3015 RMK AO2 SLP218 T01110056 10111 20061 58007
PASX 231656Z AUTO 00000KT 10SM OVC055 10/06 A3016 RMK AO2 SLP222 T01000061
PASX 231556Z AUTO VRB03KT 10SM BKN037 OVC060 09/07 A3017 RMK AO2 SLP225 T00940067
PASX 231456Z AUTO 00000KT 10SM OVC060 08/07 A3017 RMK AO2 SLP226 T00830067 58000
PASX 231356Z AUTO 00000KT 10SM FEW009 BKN036 OVC060 07/06 A3017 RMK AO2 SLP227 T00670056
PASX 231352Z AUTO 00000KT 10SM FEW009 BKN036 BKN060 07/06 A3017 RMK AO2
PASX 231256Z AUTO 21003KT 10SM OVC032 08/06 A3017 RMK AO2 SLP226 T00780061
PASX 231156Z AUTO 00000KT 10SM FEW041 OVC060 08/06 A3018 RMK AO2 SLP228 70004 T00830061 10111 20083 50002
PASX 231056Z AUTO 22003KT 10SM OVC060 09/06 A3018 RMK AO2 SLP229 T00890061
PASX 230956Z AUTO 24003KT 10SM SCT036 OVC060 09/06 A3017 RMK AO2 SLP228 T00890061
PASX 230856Z AUTO 23003KT 10SM SCT036 OVC060 09/06 A3017 RMK AO2 SLP227 T00940056 401220089 51005
PASX 230756Z AUTO 22006KT 10SM OVC055 10/06 A3017 RMK AO2 SLP225 T01000056
PASX 230656Z AUTO 25006KT 10SM OVC060 11/06 A3016 RMK AO2 SLP223 T01060056
PASX 230556Z AUTO 24006KT 10SM SCT034 OVC060 11/06 A3015 RMK AO2 SLP221 T01060056 10122 20106 53001
PASX 230456Z AUTO 28007KT 10SM OVC060 12/06 A3015 RMK AO2 SLP220 T01170056
PASX 230356Z AUTO 28008KT 10SM BKN032 OVC065 12/04 A3015 RMK AO2 SLP220 T01170044
PASX 230256Z AUTO 27007KT 10SM BKN032 OVC070 12/05 A3015 RMK AO2 SLP220 T01220050 51004
PASX 230156Z AUTO 25010KT 10SM OVC030 12/05 A3015 RMK AO2 SLP218 T01220050
PASX 230144Z AUTO 24010KT 10SM OVC030 12/05 A3015 RMK AO2
PASX 230056Z AUTO 22009KT 10SM OVC028 12/06 A3015 RMK AO2 SLP219 T01170056
PASX 230027Z AUTO 23009KT 10SM OVC028 12/06 A3014 RMK AO2
PASX 222356Z AUTO 23011KT 10SM FEW017 OVC030 12/07 A3014 RMK AO2 RAB13E35 SLP215 P0000 60001 T01170067 10122 20106 51005
PASX 222352Z AUTO 23009KT 10SM FEW017 OVC030 12/07 A3014 RMK AO2 RAB13E35 P0000
PASX 222256Z AUTO 22008KT 10SM BKN019 OVC028 12/08 A3013 RMK AO2 SLP214 T01170078
PASX 222156Z AUTO 29006KT 10SM BKN017 OVC029 11/07 A3012 RMK AO2 RAE44 SLP210 P0000 T01110072
PASX 222134Z AUTO 28006KT 7SM -RA FEW017 OVC029 11/07 A3012 RMK AO2 P0000
PASX 222056Z AUTO 27008KT 6SM -RA BR FEW012 OVC031 11/08 A3012 RMK AO2 RAB21 SLP208 P0001 60001 T01060083 53013
PASX 222040Z AUTO 28008KT 10SM -RA SCT012 OVC031 11/08 A3011 RMK AO2 RAB21 P0001
PASX 221956Z AUTO VRB04KT 10SM BKN012 OVC038 11/08 A3010 RMK AO2 SLP202 T01110083
PASX 221856Z AUTO VRB03KT 10SM BKN014 OVC032 11/08 A3009 RMK AO2 SLP198 T01060078
PASX 221756Z AUTO 23004KT 10SM FEW032 OVC044 11/08 A3008 RMK AO2 SLP195 60003 T01060078 10106 20089 52016
PASX 221656Z AUTO 25003KT 10SM OVC046 10/08 A3006 RMK AO2 RAE51 SLP189 P0000 T01000078
PASX 221637Z AUTO 00000KT 10SM -RA FEW028 OVC048 10/08 A3006 RMK AO2 P0000
PASX 221556Z AUTO 23004KT 10SM -RA BKN024 BKN028 OVC034 09/08 A3004 RMK AO2 SLP184 P0001 T00890078
PASX 221456Z AUTO 00000KT 10SM -RA OVC016 09/08 A3003 RMK AO2 SLP179 P0001 60002 T00890078 51017
PASX 221356Z AUTO 00000KT 10SM -RA BKN016 OVC031 09/08 A3001 RMK AO2 SLP174 P0001 T00890078
PASX 221341Z AUTO 22004KT 10SM -RA BKN016 OVC031 09/08 A3001 RMK AO2 P0001
PASX 221322Z AUTO 21004KT 10SM -RA FEW009 OVC014 09/08 A3000 RMK AO2 P0001